Humidity-temperature Sensor

Selected Measurement Type: Air Temperature

 
Air Temperature [°C]     6 entries per hour
Showing data from 12/13/2022 (00:00:00 Z) to 12/12/2022 (00:01:00 Z)
Previous Next [ Day | 3-Days | 7-Days ]
First Last
Prev [ Day | 3-Days | 7-Days ] Next
First Last

Start Time:     :
End Time:     :     
Time (in GMT) :00 :50 :40 :30 :20 :10
Previous Next [ Day | 3-Days | 7-Days ]
First Last
Prev [ Day | 3-Days | 7-Days ] Next
First Last


123 => good data
MM => data is determined as missing
-- => data not received/configured
Back to Top Back to Top
12/13/2022 00:00 to 23:10 23.41 24.18 24.54 26.11 26.00 25.99
12/12/2022 23:00 to 22:10 25.96 26.01 26.01 25.93 25.94 26.07
12/12/2022 22:00 to 21:10 25.98 25.90 25.85 25.89 25.76 25.87
12/12/2022 21:00 to 20:10 25.69 25.79 25.63 25.68 25.57 25.47
12/12/2022 20:00 to 19:10 25.53 25.64 25.51 24.95 24.93 24.54
12/12/2022 19:00 to 18:10 24.67 24.60 24.55 24.84 25.13 25.10
12/12/2022 18:00 to 17:10 25.26 25.80 25.53 25.54 25.57 25.45
12/12/2022 17:00 to 16:10 25.54 25.51 25.50 25.35 25.46 25.48
12/12/2022 16:00 to 15:10 25.31 25.50 25.44 25.33 25.30 25.43
12/12/2022 15:00 to 14:10 25.31 25.31 25.49 25.11 25.12 25.19
12/12/2022 14:00 to 13:10 25.24 25.11 24.97 24.97 24.89 24.73
12/12/2022 13:00 to 12:10 24.80 24.76 24.77 24.67 24.53 24.68
12/12/2022 12:00 to 11:10 24.59 24.54 24.57 24.37 24.45 24.47
12/12/2022 11:00 to 10:10 24.40 24.34 24.22 24.20 24.11 24.12
12/12/2022 10:00 to 9:10 24.06 24.12 24.14 24.02 24.04 24.20
12/12/2022 09:00 to 8:10 24.19 24.17 24.19 24.13 24.17 24.09
12/12/2022 08:00 to 7:10 24.11 24.12 24.17 24.14 24.04 24.26
12/12/2022 07:00 to 6:10 24.36 24.47 25.15 25.20 25.13 25.13
12/12/2022 06:00 to 5:10 25.22 25.10 25.12 25.18 25.21 25.02
12/12/2022 05:00 to 4:10 25.06 25.14 25.12 25.20 24.99 25.10
12/12/2022 04:00 to 3:10 25.06 25.00 25.06 24.93 24.96 24.96
12/12/2022 03:00 to 2:10 24.90 24.94 24.99 25.00 24.84 24.95
12/12/2022 02:00 to 1:10 24.82 24.97 24.95 24.88 24.76 24.92
12/12/2022 01:00 to 0:10 24.78 24.73 24.69 24.72 24.52 24.80